createdAt,value
2023-01-18T00:01:19.753Z,2.10
2023-01-18T00:03:47.119Z,1.90
2023-01-18T00:06:14.226Z,1.70
2023-01-18T00:08:42.653Z,1.40
2023-01-18T00:11:12.133Z,1.10
2023-01-18T00:13:39.960Z,0.90
2023-01-18T00:16:11.237Z,0.60
2023-01-18T00:18:38.493Z,0.40
2023-01-18T00:21:08.432Z,0.20
2023-01-18T00:23:36.150Z,-0.10
2023-01-18T00:26:06.220Z,-0.20
2023-01-18T00:28:33.536Z,-0.30
2023-01-18T00:31:00.826Z,-0.30
2023-01-18T00:33:28.049Z,-0.20
2023-01-18T00:35:59.818Z,-0.30
2023-01-18T00:38:27.625Z,-0.20
2023-01-18T00:40:54.892Z,-0.10
2023-01-18T00:43:40.384Z,0.00
2023-01-18T00:46:13.875Z,0.00
2023-01-18T00:48:41.986Z,0.10
2023-01-18T00:51:12.648Z,0.20
2023-01-18T00:53:40.442Z,0.30
2023-01-18T00:56:13.360Z,0.40
2023-01-18T00:58:40.569Z,0.40
2023-01-18T01:01:08.778Z,0.60
2023-01-18T01:03:55.329Z,0.60
2023-01-18T01:06:45.852Z,0.70
2023-01-18T01:09:23.959Z,0.70
2023-01-18T01:12:10.097Z,0.70
2023-01-18T01:14:59.078Z,0.70
2023-01-18T01:17:46.862Z,0.70
2023-01-18T01:20:32.869Z,0.90
2023-01-18T01:23:28.376Z,1.00
2023-01-18T01:26:13.943Z,1.10
2023-01-18T01:28:46.004Z,1.30
2023-01-18T01:31:16.226Z,1.40
2023-01-18T01:33:44.973Z,1.40
2023-01-18T01:36:17.108Z,1.50
2023-01-18T01:38:44.176Z,1.50
2023-01-18T01:41:33.030Z,1.60
2023-01-18T01:44:04.833Z,1.60
2023-01-18T01:46:50.448Z,1.70
2023-01-18T01:49:36.444Z,1.80
2023-01-18T01:52:09.717Z,1.80
2023-01-18T01:54:56.030Z,1.90
2023-01-18T01:57:31.674Z,1.90
2023-01-18T02:00:12.180Z,2.00
2023-01-18T02:02:40.959Z,2.10
2023-01-18T02:05:10.402Z,2.10
2023-01-18T02:07:37.807Z,2.10
2023-01-18T02:10:05.929Z,2.00
2023-01-18T02:12:34.983Z,2.00
2023-01-18T02:15:02.444Z,2.00
2023-01-18T02:17:48.486Z,2.10
2023-01-18T02:20:27.561Z,2.10
2023-01-18T02:23:04.004Z,2.20
2023-01-18T02:26:08.060Z,2.20
2023-01-18T02:28:40.426Z,2.10
2023-01-18T02:31:23.067Z,2.10
2023-01-18T02:34:30.430Z,2.10
2023-01-18T02:37:04.769Z,2.10
2023-01-18T02:39:50.331Z,2.10
2023-01-18T02:42:40.984Z,2.10
2023-01-18T02:45:39.409Z,2.20
2023-01-18T02:48:07.800Z,2.10
2023-01-18T02:50:34.845Z,2.10
2023-01-18T02:53:01.999Z,2.10
2023-01-18T02:55:41.324Z,2.20
2023-01-18T02:58:24.605Z,2.20
2023-01-18T03:00:59.976Z,2.10
2023-01-18T03:03:28.127Z,2.10
2023-01-18T03:06:02.330Z,2.20
2023-01-18T03:09:05.135Z,2.10
2023-01-18T03:11:56.066Z,2.10
2023-01-18T03:14:32.340Z,2.10
2023-01-18T03:17:07.802Z,2.20
2023-01-18T03:20:07.353Z,2.10
2023-01-18T03:23:08.072Z,2.10
2023-01-18T03:25:43.022Z,2.10
2023-01-18T03:28:34.768Z,2.20
2023-01-18T03:31:25.033Z,2.20
2023-01-18T03:34:03.375Z,2.30
2023-01-18T03:36:39.882Z,2.30
2023-01-18T03:39:11.393Z,2.30
2023-01-18T03:41:43.144Z,2.30
2023-01-18T03:44:16.483Z,2.30
2023-01-18T03:46:43.961Z,2.30
2023-01-18T03:49:12.558Z,2.20
2023-01-18T03:51:58.282Z,2.30
2023-01-18T03:54:31.083Z,2.30
2023-01-18T03:57:10.259Z,2.20
2023-01-18T03:59:39.407Z,2.10
2023-01-18T04:02:08.168Z,2.20
2023-01-18T04:04:35.686Z,2.20
2023-01-18T04:07:02.955Z,2.20
2023-01-18T04:09:30.055Z,2.20
2023-01-18T04:11:57.115Z,2.10
2023-01-18T04:14:24.385Z,2.20
2023-01-18T04:16:51.282Z,2.30
2023-01-18T04:19:18.689Z,2.20
2023-01-18T04:21:45.805Z,2.10
2023-01-18T04:24:13.148Z,2.10
2023-01-18T04:26:40.227Z,2.00
2023-01-18T04:29:07.237Z,2.00
2023-01-18T04:31:34.349Z,2.10
2023-01-18T04:34:03.403Z,2.20
2023-01-18T04:36:30.316Z,2.20
2023-01-18T04:38:57.564Z,2.20
2023-01-18T04:41:24.608Z,2.20
2023-01-18T04:43:51.564Z,2.10
2023-01-18T04:46:18.558Z,2.10
2023-01-18T04:48:50.246Z,2.00
2023-01-18T04:51:18.008Z,2.10
2023-01-18T04:53:45.345Z,2.10
2023-01-18T04:56:12.553Z,2.10
2023-01-18T04:58:39.577Z,2.10
2023-01-18T05:01:09.203Z,2.00
2023-01-18T05:03:38.430Z,2.10
2023-01-18T05:06:14.180Z,2.00
2023-01-18T05:08:41.986Z,2.10
2023-01-18T05:11:14.518Z,2.10
2023-01-18T05:13:42.657Z,2.10
2023-01-18T05:16:17.790Z,2.10
2023-01-18T05:18:45.547Z,2.10
2023-01-18T05:21:13.314Z,2.20
2023-01-18T05:23:40.616Z,2.30
2023-01-18T05:26:14.595Z,2.20
2023-01-18T05:28:42.860Z,2.20
2023-01-18T05:31:09.968Z,2.10
2023-01-18T05:33:37.399Z,2.10
2023-01-18T05:36:04.879Z,2.20
2023-01-18T05:38:31.961Z,2.20
2023-01-18T05:40:59.405Z,2.20
2023-01-18T05:43:28.063Z,2.20
2023-01-18T05:45:55.285Z,2.20
2023-01-18T05:48:22.361Z,2.20
2023-01-18T05:50:50.048Z,2.20
2023-01-18T05:53:20.132Z,2.20
2023-01-18T05:56:02.185Z,2.30
2023-01-18T05:58:29.688Z,2.30
2023-01-18T06:00:57.050Z,2.30
2023-01-18T06:03:25.376Z,2.30
2023-01-18T06:05:53.318Z,2.30
2023-01-18T06:08:20.921Z,2.20
2023-01-18T06:10:59.248Z,2.20
2023-01-18T06:13:29.658Z,2.20
2023-01-18T06:15:58.325Z,2.20
2023-01-18T06:18:27.190Z,2.10
2023-01-18T06:20:55.376Z,2.00
2023-01-18T06:23:22.476Z,2.00
2023-01-18T06:25:49.534Z,2.00
2023-01-18T06:28:16.584Z,2.00
2023-01-18T06:30:44.161Z,2.10
2023-01-18T06:33:11.175Z,2.10
2023-01-18T06:35:38.582Z,2.10
2023-01-18T06:38:08.774Z,2.00
2023-01-18T06:40:35.818Z,2.00
2023-01-18T06:43:03.216Z,2.00
2023-01-18T06:45:30.624Z,2.00
2023-01-18T06:47:57.725Z,2.00
2023-01-18T06:50:24.943Z,2.10
2023-01-18T06:52:52.285Z,2.10
2023-01-18T06:55:19.961Z,2.10
2023-01-18T06:57:48.036Z,2.10
2023-01-18T07:00:16.934Z,2.20
2023-01-18T07:02:44.105Z,2.20
2023-01-18T07:05:11.303Z,2.10
2023-01-18T07:07:38.684Z,2.00
2023-01-18T07:10:08.611Z,2.00
2023-01-18T07:12:36.153Z,1.90
2023-01-18T07:15:20.467Z,1.90
2023-01-18T07:17:50.660Z,2.00
2023-01-18T07:20:18.156Z,2.00
2023-01-18T07:22:45.411Z,2.00
2023-01-18T07:25:13.568Z,1.90
2023-01-18T07:27:43.789Z,1.90
2023-01-18T07:30:12.567Z,1.80
2023-01-18T07:32:44.935Z,1.70
2023-01-18T07:35:12.068Z,1.70
2023-01-18T07:37:39.173Z,1.70
2023-01-18T07:40:08.908Z,1.70
2023-01-18T07:42:35.981Z,1.60
2023-01-18T07:45:03.824Z,1.60
2023-01-18T07:47:31.029Z,1.60
2023-01-18T07:49:57.984Z,1.60
2023-01-18T07:52:25.405Z,1.60
2023-01-18T07:54:52.731Z,1.70
2023-01-18T07:57:19.888Z,1.80
2023-01-18T07:59:46.877Z,1.80
2023-01-18T08:02:14.645Z,1.90
2023-01-18T08:04:42.067Z,2.00
2023-01-18T08:07:09.372Z,1.90
2023-01-18T08:09:36.524Z,2.00
2023-01-18T08:12:03.691Z,2.10
2023-01-18T08:14:30.756Z,2.20
2023-01-18T08:16:57.699Z,2.20
2023-01-18T08:19:25.246Z,2.30
2023-01-18T08:21:52.212Z,2.40
2023-01-18T08:24:19.179Z,2.50
2023-01-18T08:26:46.137Z,2.60
2023-01-18T08:29:13.950Z,2.70
2023-01-18T08:31:41.031Z,2.70
2023-01-18T08:34:10.481Z,2.80
2023-01-18T08:36:37.572Z,2.80
2023-01-18T08:39:04.543Z,2.90
2023-01-18T08:41:31.453Z,3.00
2023-01-18T08:43:59.758Z,3.00
2023-01-18T08:46:27.247Z,3.00
2023-01-18T08:48:56.692Z,2.90
2023-01-18T08:51:26.202Z,3.00
2023-01-18T08:53:57.550Z,2.90
2023-01-18T08:56:25.567Z,2.90
2023-01-18T08:58:52.599Z,2.90
2023-01-18T09:01:19.995Z,2.90
2023-01-18T09:03:48.885Z,3.00
2023-01-18T09:06:17.021Z,3.00
2023-01-18T09:08:46.501Z,3.10
2023-01-18T09:11:16.539Z,3.10
2023-01-18T09:13:59.372Z,3.10
2023-01-18T09:16:28.590Z,3.10
2023-01-18T09:18:56.438Z,3.10
2023-01-18T09:21:23.723Z,3.00
2023-01-18T09:23:51.155Z,3.10
2023-01-18T09:26:20.759Z,3.10
2023-01-18T09:28:51.360Z,3.10
2023-01-18T09:31:24.133Z,3.20
2023-01-18T09:33:53.922Z,3.20
2023-01-18T09:36:26.426Z,3.30
2023-01-18T09:38:57.313Z,3.30
2023-01-18T09:42:01.444Z,3.40
2023-01-18T09:44:58.864Z,3.30
2023-01-18T09:47:34.560Z,2.80
2023-01-18T09:50:22.334Z,2.60
2023-01-18T09:53:04.473Z,2.60
2023-01-18T09:55:37.346Z,2.70
2023-01-18T09:58:41.781Z,2.80
2023-01-18T10:01:14.539Z,2.90
2023-01-18T10:03:59.576Z,3.10
2023-01-18T10:06:51.893Z,3.20
2023-01-18T10:09:23.919Z,3.40
2023-01-18T10:12:17.123Z,3.50
2023-01-18T10:15:10.629Z,3.60
2023-01-18T10:17:41.585Z,3.70
2023-01-18T10:20:38.717Z,3.90
2023-01-18T10:23:44.793Z,4.10
2023-01-18T10:26:29.200Z,4.20
2023-01-18T10:29:07.464Z,4.30
2023-01-18T10:32:01.890Z,4.50
2023-01-18T10:34:34.754Z,4.60
2023-01-18T10:37:23.204Z,4.70
2023-01-18T10:40:13.524Z,4.80
2023-01-18T10:42:43.531Z,4.90
2023-01-18T10:45:25.267Z,5.10
2023-01-18T10:47:54.658Z,5.10
2023-01-18T10:50:36.838Z,5.10
2023-01-18T10:53:29.561Z,5.20
2023-01-18T10:56:12.673Z,5.30
2023-01-18T10:58:50.739Z,5.40
2023-01-18T11:01:22.764Z,5.60
2023-01-18T11:04:06.251Z,5.70
2023-01-18T11:06:54.570Z,5.80
2023-01-18T11:09:44.450Z,5.80
2023-01-18T11:12:41.632Z,5.70
2023-01-18T11:15:14.791Z,5.60
2023-01-18T11:17:44.413Z,5.60
2023-01-18T11:20:30.909Z,5.60
2023-01-18T11:23:01.906Z,5.50
2023-01-18T11:25:41.687Z,5.50
2023-01-18T11:28:30.175Z,5.50
2023-01-18T11:31:06.658Z,5.60
2023-01-18T11:33:33.939Z,5.80
2023-01-18T11:36:03.631Z,6.00
2023-01-18T11:38:33.632Z,6.40
2023-01-18T11:41:15.482Z,6.70
2023-01-18T11:44:06.658Z,7.10
2023-01-18T11:46:55.051Z,7.40
2023-01-18T11:49:51.805Z,7.50
2023-01-18T11:52:34.409Z,7.50
2023-01-18T11:55:07.330Z,7.80
2023-01-18T11:57:35.470Z,8.10
2023-01-18T12:00:04.014Z,8.30
2023-01-18T12:02:56.546Z,8.40
2023-01-18T12:05:40.770Z,8.60
2023-01-18T12:08:38.471Z,8.60
2023-01-18T12:11:18.797Z,8.00
2023-01-18T12:14:00.140Z,7.90
2023-01-18T12:16:56.477Z,7.60
2023-01-18T12:19:29.501Z,7.30
2023-01-18T12:22:18.134Z,7.10
2023-01-18T12:24:54.032Z,7.10
2023-01-18T12:27:32.215Z,6.90
2023-01-18T12:30:24.175Z,6.60
2023-01-18T12:33:17.581Z,6.60
2023-01-18T12:35:56.405Z,6.70
2023-01-18T12:38:23.485Z,6.90
2023-01-18T12:41:09.044Z,6.90
2023-01-18T12:43:44.889Z,6.90
2023-01-18T12:46:26.210Z,6.80
2023-01-18T12:49:03.024Z,6.80
2023-01-18T12:51:37.775Z,6.70
2023-01-18T12:54:19.724Z,6.50
2023-01-18T12:56:50.786Z,6.40
2023-01-18T12:59:24.685Z,6.40
2023-01-18T13:02:04.173Z,6.30
2023-01-18T13:04:43.169Z,6.10
2023-01-18T13:07:15.641Z,6.10
2023-01-18T13:09:48.283Z,6.10
2023-01-18T13:12:16.313Z,6.10
2023-01-18T13:15:08.228Z,6.00
2023-01-18T13:18:11.831Z,5.90
2023-01-18T13:20:48.685Z,5.90
2023-01-18T13:23:37.786Z,5.70
2023-01-18T13:26:26.397Z,5.50
2023-01-18T13:29:17.442Z,5.30
2023-01-18T13:31:45.120Z,5.30
2023-01-18T13:34:29.065Z,5.30
2023-01-18T13:37:13.067Z,5.30
2023-01-18T13:39:47.281Z,5.30
2023-01-18T13:42:14.250Z,5.40
2023-01-18T13:44:47.649Z,5.50
2023-01-18T13:47:41.711Z,5.60
2023-01-18T13:50:38.276Z,5.60
2023-01-18T13:53:19.984Z,5.70
2023-01-18T13:56:00.472Z,5.70
2023-01-18T13:58:34.456Z,5.80
2023-01-18T14:01:06.623Z,5.80
2023-01-18T14:03:43.697Z,5.80
2023-01-18T14:06:21.090Z,5.80
2023-01-18T14:08:52.708Z,5.80
2023-01-18T14:11:34.692Z,5.80
2023-01-18T14:14:05.642Z,5.80
2023-01-18T14:16:36.449Z,5.80
2023-01-18T14:19:21.445Z,5.80
2023-01-18T14:21:57.444Z,5.80
2023-01-18T14:24:50.601Z,5.70
2023-01-18T14:27:22.528Z,5.70
2023-01-18T14:29:57.816Z,5.60
2023-01-18T14:32:30.555Z,5.60
2023-01-18T14:35:03.824Z,5.50
2023-01-18T14:37:34.404Z,5.50
2023-01-18T14:40:27.975Z,5.50
2023-01-18T14:43:05.828Z,5.40
2023-01-18T14:45:39.252Z,5.40
2023-01-18T14:48:20.283Z,5.30
2023-01-18T14:50:49.722Z,5.20
2023-01-18T14:53:44.087Z,5.10
2023-01-18T14:56:21.168Z,5.10
2023-01-18T14:58:59.656Z,5.10
2023-01-18T15:01:37.236Z,5.10
2023-01-18T15:04:07.463Z,5.10
2023-01-18T15:06:37.165Z,5.10
2023-01-18T15:09:07.360Z,5.10
2023-01-18T15:11:36.709Z,5.10
2023-01-18T15:14:21.437Z,5.10
2023-01-18T15:16:52.057Z,5.10
2023-01-18T15:19:22.372Z,5.10
2023-01-18T15:21:50.064Z,5.10
2023-01-18T15:24:20.760Z,5.00
2023-01-18T15:26:56.177Z,5.00
2023-01-18T15:29:36.885Z,4.90
2023-01-18T15:32:16.588Z,4.80
2023-01-18T15:34:47.246Z,4.80
2023-01-18T15:37:36.960Z,4.80
2023-01-18T15:40:07.090Z,4.70
2023-01-18T15:42:42.925Z,4.70
2023-01-18T15:45:20.464Z,4.70
2023-01-18T15:47:53.855Z,4.60
2023-01-18T15:50:37.215Z,4.70
2023-01-18T15:53:06.494Z,4.60
2023-01-18T15:55:35.145Z,4.50
2023-01-18T15:58:04.808Z,4.50
2023-01-18T16:00:38.481Z,4.50
2023-01-18T16:03:06.787Z,4.10
2023-01-18T16:05:33.846Z,3.60
2023-01-18T16:08:21.173Z,3.10
2023-01-18T16:10:57.091Z,2.60
2023-01-18T16:13:26.969Z,2.20
2023-01-18T16:16:20.224Z,1.90
2023-01-18T16:18:51.782Z,1.50
2023-01-18T16:21:29.698Z,1.30
2023-01-18T16:23:57.972Z,1.10
2023-01-18T16:26:30.606Z,1.00
2023-01-18T16:29:06.909Z,1.10
2023-01-18T16:31:35.906Z,1.00
2023-01-18T16:34:13.198Z,1.00
2023-01-18T16:36:42.401Z,1.00
2023-01-18T16:39:09.946Z,1.10
2023-01-18T16:41:37.693Z,1.10
2023-01-18T16:44:05.053Z,1.10
2023-01-18T16:46:33.725Z,1.00
2023-01-18T16:49:00.840Z,1.00
2023-01-18T16:51:28.808Z,1.00
2023-01-18T16:53:55.964Z,1.00
2023-01-18T16:56:22.903Z,1.00
2023-01-18T16:58:50.043Z,0.80
2023-01-18T17:01:17.078Z,0.70
2023-01-18T17:03:44.880Z,0.60
2023-01-18T17:06:23.565Z,0.50
2023-01-18T17:08:50.565Z,0.40
2023-01-18T17:11:17.890Z,0.40
2023-01-18T17:13:45.077Z,0.40
2023-01-18T17:16:18.314Z,0.30
2023-01-18T17:18:46.628Z,0.30
2023-01-18T17:21:13.687Z,0.20
2023-01-18T17:23:40.747Z,0.30
2023-01-18T17:26:11.503Z,0.30
2023-01-18T17:28:38.434Z,0.30
2023-01-18T17:31:05.705Z,0.30
2023-01-18T17:33:32.844Z,0.30
2023-01-18T17:35:59.909Z,0.30
2023-01-18T17:40:57.947Z,0.60
2023-01-18T17:43:34.271Z,0.70
2023-01-18T17:46:06.381Z,0.80
2023-01-18T17:48:33.820Z,0.90
2023-01-18T17:51:00.857Z,0.90
2023-01-18T17:53:27.861Z,0.70
2023-01-18T17:55:54.816Z,0.60
2023-01-18T17:58:24.394Z,0.40
2023-01-18T18:00:51.680Z,0.30
2023-01-18T18:03:18.956Z,0.20
2023-01-18T18:05:46.091Z,-0.10
2023-01-18T18:08:13.126Z,-0.30
2023-01-18T18:10:43.555Z,-0.40
2023-01-18T18:13:10.530Z,-0.40
2023-01-18T18:15:37.760Z,-0.40
2023-01-18T18:18:07.439Z,-0.40
2023-01-18T18:20:38.588Z,-0.40
2023-01-18T18:23:05.586Z,-0.40
2023-01-18T18:25:33.725Z,-0.50
2023-01-18T18:28:00.762Z,-0.50
2023-01-18T18:30:27.786Z,-0.40
2023-01-18T18:32:55.048Z,-0.50
2023-01-18T18:35:26.426Z,-0.50
2023-01-18T18:37:54.580Z,-0.40
2023-01-18T18:40:22.467Z,-0.50
2023-01-18T18:43:01.353Z,-0.50
2023-01-18T18:45:31.793Z,-0.60
2023-01-18T18:47:59.059Z,-0.60
2023-01-18T18:50:27.970Z,-0.60
2023-01-18T18:52:55.070Z,-0.60
2023-01-18T18:55:22.167Z,-0.60
2023-01-18T18:57:49.287Z,-0.70
2023-01-18T19:00:17.263Z,-0.80
2023-01-18T19:02:44.317Z,-0.80
2023-01-18T19:05:12.231Z,-0.80
2023-01-18T19:07:39.436Z,-0.70
2023-01-18T19:10:07.428Z,-0.80
2023-01-18T19:12:34.545Z,-0.90
2023-01-18T19:15:01.805Z,-0.90
2023-01-18T19:17:31.644Z,-1.00
2023-01-18T19:19:59.264Z,-1.00
2023-01-18T19:22:29.600Z,-1.00
2023-01-18T19:24:56.649Z,-1.00
2023-01-18T19:27:24.702Z,-1.10
2023-01-18T19:29:53.428Z,-1.10
2023-01-18T19:32:21.005Z,-1.10
2023-01-18T19:34:48.131Z,-1.20
2023-01-18T19:37:15.370Z,-1.30
2023-01-18T19:39:42.390Z,-1.30
2023-01-18T19:42:09.419Z,-1.30
2023-01-18T19:44:36.467Z,-1.30
2023-01-18T19:47:03.610Z,-1.30
2023-01-18T19:49:30.642Z,-1.30
2023-01-18T19:51:57.687Z,-1.30
2023-01-18T19:54:27.675Z,-1.30
2023-01-18T19:56:54.610Z,-1.30
2023-01-18T19:59:21.574Z,-1.30
2023-01-18T20:01:48.556Z,-1.20
2023-01-18T20:04:15.933Z,-1.20
2023-01-18T20:06:46.187Z,-1.30
2023-01-18T20:09:27.103Z,-1.30
2023-01-18T20:12:01.689Z,-1.40
2023-01-18T20:14:40.981Z,-1.50
2023-01-18T20:17:14.487Z,-1.60
2023-01-18T20:19:42.523Z,-1.60
2023-01-18T20:22:09.996Z,-1.50
2023-01-18T20:24:37.223Z,-1.50
2023-01-18T20:27:15.404Z,-1.40
2023-01-18T20:29:43.749Z,-1.50
2023-01-18T20:32:17.275Z,-1.50
2023-01-18T20:34:47.748Z,-1.50
2023-01-18T20:37:16.022Z,-1.60
2023-01-18T20:39:43.417Z,-1.70
2023-01-18T20:42:10.671Z,-1.70
2023-01-18T20:44:37.813Z,-1.70
2023-01-18T20:47:05.422Z,-1.60
2023-01-18T20:49:38.360Z,-1.60
2023-01-18T20:52:07.409Z,-1.50
2023-01-18T20:54:36.562Z,-1.50
2023-01-18T20:57:05.180Z,-1.60
2023-01-18T20:59:32.303Z,-1.60
2023-01-18T21:01:59.533Z,-1.50
2023-01-18T21:04:26.692Z,-1.50
2023-01-18T21:06:54.503Z,-1.40
2023-01-18T21:09:21.394Z,-1.40
2023-01-18T21:11:48.300Z,-1.30
2023-01-18T21:14:16.089Z,-1.40
2023-01-18T21:16:43.776Z,-1.40
2023-01-18T21:19:10.886Z,-1.30
2023-01-18T21:21:37.890Z,-1.30
2023-01-18T21:24:04.973Z,-1.40
2023-01-18T21:26:32.112Z,-1.40
2023-01-18T21:29:00.804Z,-1.40
2023-01-18T21:31:28.178Z,-1.40
2023-01-18T21:33:55.651Z,-1.30
2023-01-18T21:36:23.330Z,-1.20
2023-01-18T21:38:50.725Z,-1.10
2023-01-18T21:41:36.525Z,-1.10
2023-01-18T21:44:22.293Z,-1.20
2023-01-18T21:46:53.975Z,-1.30
2023-01-18T21:50:04.005Z,-1.30
2023-01-18T21:52:47.757Z,-1.10
2023-01-18T21:55:15.580Z,-0.90
2023-01-18T21:57:43.205Z,-0.80
2023-01-18T22:00:11.460Z,-0.90
2023-01-18T22:02:38.950Z,-0.80
2023-01-18T22:05:08.675Z,-0.70
2023-01-18T22:07:36.199Z,-0.60
2023-01-18T22:10:06.900Z,-0.60
2023-01-18T22:12:36.180Z,-0.70
2023-01-18T22:15:05.254Z,-0.70
2023-01-18T22:17:32.703Z,-0.60
2023-01-18T22:20:00.384Z,-0.50
2023-01-18T22:22:32.433Z,-0.40
2023-01-18T22:25:02.321Z,-0.30
2023-01-18T22:27:29.528Z,-0.20
2023-01-18T22:29:56.566Z,-0.10
2023-01-18T22:32:23.575Z,-0.30
2023-01-18T22:34:50.538Z,-0.30
2023-01-18T22:37:17.609Z,-0.30
2023-01-18T22:39:44.689Z,-0.30
2023-01-18T22:42:11.607Z,-0.20
2023-01-18T22:44:38.591Z,-0.30
2023-01-18T22:47:05.648Z,-0.40
2023-01-18T22:49:32.563Z,-0.50
2023-01-18T22:51:59.601Z,-0.70
2023-01-18T22:54:28.453Z,-0.80
2023-01-18T22:56:55.421Z,-0.90
2023-01-18T22:59:22.376Z,-0.90
2023-01-18T23:01:49.445Z,-1.10
2023-01-18T23:04:16.406Z,-1.20
2023-01-18T23:06:46.846Z,-1.20
2023-01-18T23:09:17.964Z,-1.20
2023-01-18T23:11:45.766Z,-1.30
2023-01-18T23:14:33.261Z,-1.40
2023-01-18T23:17:18.626Z,-1.20
2023-01-18T23:19:45.527Z,-1.20
2023-01-18T23:22:12.527Z,-1.30
2023-01-18T23:24:40.072Z,-1.40
2023-01-18T23:27:12.560Z,-1.40
2023-01-18T23:29:39.988Z,-1.50
2023-01-18T23:32:07.816Z,-1.50
2023-01-18T23:34:35.135Z,-1.60
2023-01-18T23:37:02.486Z,-1.70
2023-01-18T23:39:48.003Z,-1.70
2023-01-18T23:42:34.303Z,-1.80
2023-01-18T23:45:19.887Z,-1.80
2023-01-18T23:48:05.398Z,-1.70
2023-01-18T23:50:53.786Z,-1.70
2023-01-18T23:53:39.448Z,-1.80
2023-01-18T23:56:07.447Z,-1.90
2023-01-18T23:58:39.364Z,-1.80
